KSBM/SBM METAR and TAF weather

Enter ICAO airport designator
Station Type Date Time Source
KSBM METAR 2021/01/16 02:53 UTC NOAA

KSBM 160253Z AUTO 26004KT 3SM -SN BR OVC006 01/00 A2953 RMK AO2 SLP006 P0000 60005 T00060000 58007


Station Type Date Time Source
KSBM Decoded METAR 2021/01/16 02:53 UTC NOAA

SHEBOYGAN CO MEMORIAL AIRPORT , WI, United States (KSBM) 43-47N 87-51W 232M
Jan 15, 2021 - 09:53 PM EST / 2021.01.16 0253 UTC
Wind: from the W (260 degrees) at 5 MPH (4 KT):0
Visibility: 3 mile(s):0
Sky conditions: overcast
Weather: light snow; mist
Precipitation last hour: A trace
Temperature: 33.1 F (0.6 C)
Windchill: 28 F (-2 C):1
Dew Point: 32.0 F (0.0 C)
Relative Humidity: 95%
Pressure (altimeter): 29.53 in. Hg (1000 hPa)
Pressure tendency: 0.02 inches (0.7 hPa) lower than three hours ago
ob: KSBM 160253Z AUTO 26004KT 3SM -SN BR OVC006 01/00 A2953 RMK AO2 SLP006 P0000 60005 T00060000 58007
cycle: 3

Station Type Date Time Source
KSBM TAF 2021/01/16 02:18 UTC NOAA

TAF
AMD KSBM 160216Z 1602/1624 25005KT 2SM -SN BR OVC006
FM160400 30005KT 1 1/2SM -SN BR OVC006
FM160900 34010KT 2SM -SN BR OVC006
FM161700 34012G20KT P6SM VCSH OVC009
FM161800 34012G20KT P6SM OVC010
FM162300 31010KT P6SM BKN022

Example: see airport list